sensor_id;sensor_type;location;lat;lon;timestamp;P1;durP1;ratioP1;P2;durP2;ratioP2
79143;SDS011;68551;47.484;19.092;2023-03-21T00:02:40;12.35;;;7.05;;
79143;SDS011;68551;47.484;19.092;2023-03-21T00:05:50;7.80;;;6.45;;
79143;SDS011;68551;47.484;19.092;2023-03-21T00:08:54;8.23;;;6.60;;
79143;SDS011;68551;47.484;19.092;2023-03-21T00:11:57;10.05;;;6.28;;
79143;SDS011;68551;47.484;19.092;2023-03-21T00:15:08;9.63;;;6.93;;
79143;SDS011;68551;47.484;19.092;2023-03-21T00:18:14;9.30;;;6.63;;
79143;SDS011;68551;47.484;19.092;2023-03-21T00:21:20;10.00;;;6.95;;
79143;SDS011;68551;47.484;19.092;2023-03-21T00:24:49;10.45;;;6.80;;
79143;SDS011;68551;47.484;19.092;2023-03-21T00:27:55;9.15;;;6.75;;
79143;SDS011;68551;47.484;19.092;2023-03-21T00:31:09;9.73;;;7.05;;
79143;SDS011;68551;47.484;19.092;2023-03-21T00:34:17;9.48;;;6.45;;
79143;SDS011;68551;47.484;19.092;2023-03-21T00:37:44;8.77;;;6.50;;
79143;SDS011;68551;47.484;19.092;2023-03-21T00:40:46;11.20;;;6.20;;
79143;SDS011;68551;47.484;19.092;2023-03-21T00:43:52;10.07;;;7.18;;
79143;SDS011;68551;47.484;19.092;2023-03-21T00:46:56;8.63;;;6.57;;
79143;SDS011;68551;47.484;19.092;2023-03-21T00:50:08;8.88;;;6.05;;
79143;SDS011;68551;47.484;19.092;2023-03-21T00:53:13;8.10;;;6.68;;
79143;SDS011;68551;47.484;19.092;2023-03-21T00:56:18;8.95;;;6.72;;
79143;SDS011;68551;47.484;19.092;2023-03-21T00:59:20;8.73;;;7.00;;
79143;SDS011;68551;47.484;19.092;2023-03-21T01:02:25;9.70;;;6.80;;
79143;SDS011;68551;47.484;19.092;2023-03-21T01:05:28;10.00;;;6.95;;
79143;SDS011;68551;47.484;19.092;2023-03-21T01:08:49;10.07;;;7.43;;
79143;SDS011;68551;47.484;19.092;2023-03-21T01:11:57;8.35;;;7.03;;
79143;SDS011;68551;47.484;19.092;2023-03-21T01:15:00;12.10;;;7.05;;
79143;SDS011;68551;47.484;19.092;2023-03-21T01:18:02;9.45;;;6.97;;
79143;SDS011;68551;47.484;19.092;2023-03-21T01:21:06;9.55;;;7.75;;
79143;SDS011;68551;47.484;19.092;2023-03-21T01:24:13;12.52;;;7.57;;
79143;SDS011;68551;47.484;19.092;2023-03-21T01:27:21;8.73;;;7.05;;
79143;SDS011;68551;47.484;19.092;2023-03-21T01:30:23;9.45;;;7.25;;
79143;SDS011;68551;47.484;19.092;2023-03-21T01:33:32;9.98;;;8.15;;
79143;SDS011;68551;47.484;19.092;2023-03-21T01:36:41;10.25;;;7.88;;
79143;SDS011;68551;47.484;19.092;2023-03-21T01:39:52;10.30;;;7.30;;
79143;SDS011;68551;47.484;19.092;2023-03-21T01:42:55;10.02;;;7.63;;
79143;SDS011;68551;47.484;19.092;2023-03-21T01:49:34;10.73;;;7.45;;
79143;SDS011;68551;47.484;19.092;2023-03-21T01:52:53;10.27;;;7.60;;
79143;SDS011;68551;47.484;19.092;2023-03-21T01:56:03;9.20;;;6.63;;
79143;SDS011;68551;47.484;19.092;2023-03-21T01:59:41;11.45;;;7.40;;
79143;SDS011;68551;47.484;19.092;2023-03-21T02:03:07;11.88;;;7.28;;
79143;SDS011;68551;47.484;19.092;2023-03-21T02:06:35;11.48;;;7.95;;
79143;SDS011;68551;47.484;19.092;2023-03-21T02:10:12;9.20;;;7.28;;
79143;SDS011;68551;47.484;19.092;2023-03-21T02:13:21;9.77;;;7.40;;
79143;SDS011;68551;47.484;19.092;2023-03-21T02:16:36;7.47;;;6.70;;
79143;SDS011;68551;47.484;19.092;2023-03-21T02:37:04;10.18;;;7.15;;
79143;SDS011;68551;47.484;19.092;2023-03-21T02:40:49;9.15;;;7.32;;
79143;SDS011;68551;47.484;19.092;2023-03-21T02:47:38;11.07;;;7.22;;
79143;SDS011;68551;47.484;19.092;2023-03-21T02:50:53;8.18;;;7.35;;
79143;SDS011;68551;47.484;19.092;2023-03-21T02:54:00;9.20;;;6.88;;
79143;SDS011;68551;47.484;19.092;2023-03-21T02:57:31;7.43;;;6.40;;
79143;SDS011;68551;47.484;19.092;2023-03-21T03:00:44;8.10;;;6.32;;
79143;SDS011;68551;47.484;19.092;2023-03-21T03:03:59;7.40;;;5.70;;
79143;SDS011;68551;47.484;19.092;2023-03-21T03:07:40;7.47;;;5.95;;
79143;SDS011;68551;47.484;19.092;2023-03-21T03:10:42;7.88;;;5.18;;
79143;SDS011;68551;47.484;19.092;2023-03-21T03:20:39;7.60;;;5.75;;
79143;SDS011;68551;47.484;19.092;2023-03-21T03:24:13;7.75;;;6.30;;
79143;SDS011;68551;47.484;19.092;2023-03-21T03:27:26;8.70;;;6.13;;
79143;SDS011;68551;47.484;19.092;2023-03-21T03:30:37;7.72;;;6.10;;
79143;SDS011;68551;47.484;19.092;2023-03-21T03:33:54;9.10;;;6.70;;
79143;SDS011;68551;47.484;19.092;2023-03-21T03:36:58;11.00;;;6.75;;
79143;SDS011;68551;47.484;19.092;2023-03-21T03:40:15;8.20;;;6.32;;
79143;SDS011;68551;47.484;19.092;2023-03-21T03:43:48;7.50;;;6.10;;
79143;SDS011;68551;47.484;19.092;2023-03-21T03:47:03;6.45;;;5.38;;
79143;SDS011;68551;47.484;19.092;2023-03-21T03:50:21;8.70;;;5.75;;
79143;SDS011;68551;47.484;19.092;2023-03-21T03:56:48;6.90;;;4.93;;
79143;SDS011;68551;47.484;19.092;2023-03-21T03:59:51;5.82;;;5.03;;
79143;SDS011;68551;47.484;19.092;2023-03-21T04:03:13;6.43;;;5.20;;
79143;SDS011;68551;47.484;19.092;2023-03-21T04:06:18;8.82;;;5.40;;
79143;SDS011;68551;47.484;19.092;2023-03-21T04:09:23;9.13;;;5.60;;
79143;SDS011;68551;47.484;19.092;2023-03-21T04:12:48;9.07;;;5.97;;
79143;SDS011;68551;47.484;19.092;2023-03-21T04:16:07;9.52;;;6.68;;
79143;SDS011;68551;47.484;19.092;2023-03-21T04:19:10;8.55;;;5.80;;
79143;SDS011;68551;47.484;19.092;2023-03-21T04:22:13;9.18;;;5.30;;
79143;SDS011;68551;47.484;19.092;2023-03-21T04:25:17;8.15;;;6.25;;
79143;SDS011;68551;47.484;19.092;2023-03-21T04:28:34;8.50;;;6.10;;
79143;SDS011;68551;47.484;19.092;2023-03-21T04:32:01;7.43;;;5.60;;
79143;SDS011;68551;47.484;19.092;2023-03-21T04:35:05;6.78;;;5.18;;
79143;SDS011;68551;47.484;19.092;2023-03-21T04:38:09;7.30;;;5.25;;
79143;SDS011;68551;47.484;19.092;2023-03-21T04:41:12;8.10;;;5.63;;
79143;SDS011;68551;47.484;19.092;2023-03-21T04:44:17;7.78;;;5.68;;
79143;SDS011;68551;47.484;19.092;2023-03-21T04:47:22;6.40;;;5.30;;
79143;SDS011;68551;47.484;19.092;2023-03-21T04:50:31;9.15;;;5.88;;
79143;SDS011;68551;47.484;19.092;2023-03-21T04:53:36;6.60;;;5.50;;
79143;SDS011;68551;47.484;19.092;2023-03-21T04:56:39;6.95;;;5.05;;
79143;SDS011;68551;47.484;19.092;2023-03-21T04:59:48;6.65;;;5.43;;
79143;SDS011;68551;47.484;19.092;2023-03-21T05:02:50;8.98;;;5.95;;
79143;SDS011;68551;47.484;19.092;2023-03-21T05:05:55;10.38;;;6.60;;
79143;SDS011;68551;47.484;19.092;2023-03-21T05:08:58;8.73;;;5.93;;
79143;SDS011;68551;47.484;19.092;2023-03-21T05:12:07;7.57;;;5.65;;
79143;SDS011;68551;47.484;19.092;2023-03-21T05:15:10;7.20;;;5.88;;
79143;SDS011;68551;47.484;19.092;2023-03-21T05:18:12;8.13;;;6.18;;
79143;SDS011;68551;47.484;19.092;2023-03-21T05:21:33;8.25;;;6.28;;
79143;SDS011;68551;47.484;19.092;2023-03-21T05:24:47;8.20;;;5.82;;
79143;SDS011;68551;47.484;19.092;2023-03-21T05:28:27;8.52;;;6.00;;
79143;SDS011;68551;47.484;19.092;2023-03-21T05:31:34;7.65;;;6.20;;
79143;SDS011;68551;47.484;19.092;2023-03-21T05:34:42;9.23;;;6.22;;
79143;SDS011;68551;47.484;19.092;2023-03-21T05:37:45;8.55;;;6.47;;
79143;SDS011;68551;47.484;19.092;2023-03-21T05:40:50;8.70;;;6.82;;
79143;SDS011;68551;47.484;19.092;2023-03-21T05:43:55;7.40;;;6.32;;
79143;SDS011;68551;47.484;19.092;2023-03-21T05:46:57;8.98;;;6.45;;
79143;SDS011;68551;47.484;19.092;2023-03-21T05:50:10;8.15;;;6.38;;
79143;SDS011;68551;47.484;19.092;2023-03-21T05:53:27;8.63;;;5.60;;
79143;SDS011;68551;47.484;19.092;2023-03-21T05:56:33;9.77;;;6.20;;
79143;SDS011;68551;47.484;19.092;2023-03-21T05:59:41;8.82;;;6.55;;
79143;SDS011;68551;47.484;19.092;2023-03-21T06:02:43;6.82;;;5.85;;
79143;SDS011;68551;47.484;19.092;2023-03-21T06:06:07;6.95;;;5.30;;
79143;SDS011;68551;47.484;19.092;2023-03-21T06:09:16;7.22;;;5.47;;
79143;SDS011;68551;47.484;19.092;2023-03-21T06:12:26;8.10;;;4.70;;
79143;SDS011;68551;47.484;19.092;2023-03-21T06:15:39;8.43;;;5.35;;
79143;SDS011;68551;47.484;19.092;2023-03-21T06:18:52;7.20;;;5.05;;
79143;SDS011;68551;47.484;19.092;2023-03-21T06:22:08;6.47;;;5.05;;
79143;SDS011;68551;47.484;19.092;2023-03-21T06:25:12;6.45;;;5.22;;
79143;SDS011;68551;47.484;19.092;2023-03-21T06:28:15;6.28;;;4.97;;
79143;SDS011;68551;47.484;19.092;2023-03-21T06:31:18;5.78;;;5.00;;
79143;SDS011;68551;47.484;19.092;2023-03-21T06:34:25;5.05;;;4.53;;
79143;SDS011;68551;47.484;19.092;2023-03-21T06:37:30;6.10;;;5.15;;
79143;SDS011;68551;47.484;19.092;2023-03-21T06:40:37;6.32;;;5.03;;
79143;SDS011;68551;47.484;19.092;2023-03-21T06:43:43;8.63;;;5.45;;
79143;SDS011;68551;47.484;19.092;2023-03-21T06:46:51;6.32;;;5.20;;
79143;SDS011;68551;47.484;19.092;2023-03-21T06:49:53;5.57;;;5.00;;
79143;SDS011;68551;47.484;19.092;2023-03-21T06:53:01;5.95;;;5.28;;
79143;SDS011;68551;47.484;19.092;2023-03-21T06:56:09;8.63;;;5.65;;
79143;SDS011;68551;47.484;19.092;2023-03-21T06:59:13;7.78;;;4.97;;
79143;SDS011;68551;47.484;19.092;2023-03-21T07:02:24;6.93;;;5.55;;
79143;SDS011;68551;47.484;19.092;2023-03-21T07:05:56;6.90;;;5.15;;
79143;SDS011;68551;47.484;19.092;2023-03-21T07:09:05;6.55;;;5.50;;
79143;SDS011;68551;47.484;19.092;2023-03-21T07:12:07;7.28;;;5.43;;
79143;SDS011;68551;47.484;19.092;2023-03-21T07:15:31;9.20;;;6.15;;
79143;SDS011;68551;47.484;19.092;2023-03-21T07:18:35;7.25;;;5.95;;
79143;SDS011;68551;47.484;19.092;2023-03-21T07:21:40;7.00;;;5.60;;
79143;SDS011;68551;47.484;19.092;2023-03-21T07:24:45;8.15;;;5.85;;
79143;SDS011;68551;47.484;19.092;2023-03-21T07:28:14;7.75;;;4.82;;
79143;SDS011;68551;47.484;19.092;2023-03-21T07:31:18;7.22;;;5.68;;
79143;SDS011;68551;47.484;19.092;2023-03-21T07:34:22;9.50;;;5.80;;
79143;SDS011;68551;47.484;19.092;2023-03-21T07:37:27;6.45;;;5.30;;
79143;SDS011;68551;47.484;19.092;2023-03-21T07:40:34;5.82;;;5.05;;
79143;SDS011;68551;47.484;19.092;2023-03-21T07:43:39;7.85;;;5.75;;
79143;SDS011;68551;47.484;19.092;2023-03-21T07:46:44;11.35;;;5.50;;
79143;SDS011;68551;47.484;19.092;2023-03-21T07:49:49;6.18;;;5.22;;
79143;SDS011;68551;47.484;19.092;2023-03-21T07:52:52;9.75;;;5.68;;
79143;SDS011;68551;47.484;19.092;2023-03-21T07:55:55;5.80;;;4.65;;
79143;SDS011;68551;47.484;19.092;2023-03-21T07:59:00;5.97;;;5.00;;
79143;SDS011;68551;47.484;19.092;2023-03-21T08:02:05;5.72;;;4.80;;
79143;SDS011;68551;47.484;19.092;2023-03-21T08:05:13;6.70;;;4.75;;
79143;SDS011;68551;47.484;19.092;2023-03-21T08:08:20;5.93;;;4.50;;
79143;SDS011;68551;47.484;19.092;2023-03-21T08:11:22;5.50;;;4.90;;
79143;SDS011;68551;47.484;19.092;2023-03-21T08:14:28;8.50;;;5.03;;
79143;SDS011;68551;47.484;19.092;2023-03-21T08:17:33;8.13;;;4.78;;
79143;SDS011;68551;47.484;19.092;2023-03-21T08:20:40;5.15;;;4.47;;
79143;SDS011;68551;47.484;19.092;2023-03-21T08:23:45;6.22;;;4.50;;
79143;SDS011;68551;47.484;19.092;2023-03-21T08:26:47;6.05;;;3.90;;
79143;SDS011;68551;47.484;19.092;2023-03-21T08:29:50;7.18;;;4.95;;
79143;SDS011;68551;47.484;19.092;2023-03-21T08:32:58;4.43;;;4.00;;
79143;SDS011;68551;47.484;19.092;2023-03-21T08:36:05;6.22;;;4.82;;
79143;SDS011;68551;47.484;19.092;2023-03-21T08:39:10;5.00;;;4.07;;
79143;SDS011;68551;47.484;19.092;2023-03-21T08:42:15;5.68;;;3.85;;
79143;SDS011;68551;47.484;19.092;2023-03-21T08:45:18;4.68;;;3.58;;
79143;SDS011;68551;47.484;19.092;2023-03-21T08:48:23;10.25;;;4.10;;
79143;SDS011;68551;47.484;19.092;2023-03-21T08:51:25;4.97;;;3.35;;
79143;SDS011;68551;47.484;19.092;2023-03-21T08:54:27;4.28;;;3.55;;
79143;SDS011;68551;47.484;19.092;2023-03-21T08:57:30;4.93;;;3.80;;
79143;SDS011;68551;47.484;19.092;2023-03-21T09:00:34;4.43;;;3.38;;
79143;SDS011;68551;47.484;19.092;2023-03-21T09:03:39;4.43;;;3.33;;
79143;SDS011;68551;47.484;19.092;2023-03-21T09:06:42;5.13;;;3.78;;
79143;SDS011;68551;47.484;19.092;2023-03-21T09:09:53;4.55;;;3.35;;
79143;SDS011;68551;47.484;19.092;2023-03-21T09:13:20;4.28;;;3.67;;
79143;SDS011;68551;47.484;19.092;2023-03-21T09:16:23;7.00;;;3.42;;
79143;SDS011;68551;47.484;19.092;2023-03-21T09:19:28;3.35;;;3.00;;
79143;SDS011;68551;47.484;19.092;2023-03-21T09:22:35;3.72;;;3.35;;
79143;SDS011;68551;47.484;19.092;2023-03-21T09:25:45;4.75;;;3.05;;
79143;SDS011;68551;47.484;19.092;2023-03-21T09:28:50;5.18;;;2.50;;
79143;SDS011;68551;47.484;19.092;2023-03-21T09:31:54;3.65;;;3.20;;
79143;SDS011;68551;47.484;19.092;2023-03-21T09:34:56;5.15;;;3.10;;
79143;SDS011;68551;47.484;19.092;2023-03-21T09:37:58;4.53;;;2.97;;
79143;SDS011;68551;47.484;19.092;2023-03-21T09:47:28;3.67;;;2.83;;
79143;SDS011;68551;47.484;19.092;2023-03-21T09:50:36;4.43;;;2.90;;
79143;SDS011;68551;47.484;19.092;2023-03-21T09:53:45;4.10;;;2.85;;
79143;SDS011;68551;47.484;19.092;2023-03-21T09:56:51;6.10;;;3.50;;
79143;SDS011;68551;47.484;19.092;2023-03-21T10:00:04;5.03;;;3.75;;
79143;SDS011;68551;47.484;19.092;2023-03-21T10:03:21;3.70;;;2.60;;
79143;SDS011;68551;47.484;19.092;2023-03-21T10:06:29;3.90;;;2.58;;
79143;SDS011;68551;47.484;19.092;2023-03-21T10:09:35;4.30;;;3.00;;
79143;SDS011;68551;47.484;19.092;2023-03-21T10:12:42;3.45;;;3.00;;
79143;SDS011;68551;47.484;19.092;2023-03-21T10:15:47;4.45;;;3.13;;
79143;SDS011;68551;47.484;19.092;2023-03-21T10:18:52;5.00;;;3.38;;
79143;SDS011;68551;47.484;19.092;2023-03-21T10:21:57;5.07;;;3.10;;
79143;SDS011;68551;47.484;19.092;2023-03-21T10:25:06;4.13;;;3.33;;
79143;SDS011;68551;47.484;19.092;2023-03-21T10:28:14;3.45;;;3.15;;
79143;SDS011;68551;47.484;19.092;2023-03-21T10:31:22;3.65;;;3.08;;
79143;SDS011;68551;47.484;19.092;2023-03-21T10:34:31;5.03;;;3.22;;
79143;SDS011;68551;47.484;19.092;2023-03-21T10:37:40;3.97;;;3.45;;
79143;SDS011;68551;47.484;19.092;2023-03-21T10:40:43;4.57;;;3.03;;
79143;SDS011;68551;47.484;19.092;2023-03-21T10:47:06;5.13;;;3.03;;
79143;SDS011;68551;47.484;19.092;2023-03-21T10:53:21;3.63;;;3.05;;
79143;SDS011;68551;47.484;19.092;2023-03-21T10:56:30;3.53;;;2.80;;
79143;SDS011;68551;47.484;19.092;2023-03-21T10:59:38;2.90;;;2.50;;
79143;SDS011;68551;47.484;19.092;2023-03-21T11:03:18;4.50;;;2.78;;
79143;SDS011;68551;47.484;19.092;2023-03-21T11:06:28;4.68;;;3.08;;
79143;SDS011;68551;47.484;19.092;2023-03-21T11:09:42;4.38;;;2.75;;
79143;SDS011;68551;47.484;19.092;2023-03-21T11:12:55;3.58;;;2.85;;
79143;SDS011;68551;47.484;19.092;2023-03-21T11:16:22;2.78;;;2.10;;
79143;SDS011;68551;47.484;19.092;2023-03-21T11:19:32;4.45;;;3.13;;
79143;SDS011;68551;47.484;19.092;2023-03-21T11:22:40;6.15;;;3.40;;
79143;SDS011;68551;47.484;19.092;2023-03-21T11:25:52;3.15;;;2.40;;
79143;SDS011;68551;47.484;19.092;2023-03-21T11:28:55;4.47;;;3.10;;
79143;SDS011;68551;47.484;19.092;2023-03-21T11:32:08;5.20;;;3.10;;
79143;SDS011;68551;47.484;19.092;2023-03-21T11:35:16;4.03;;;3.13;;
79143;SDS011;68551;47.484;19.092;2023-03-21T11:38:24;4.32;;;3.33;;
79143;SDS011;68551;47.484;19.092;2023-03-21T11:41:31;3.95;;;3.22;;
79143;SDS011;68551;47.484;19.092;2023-03-21T11:44:41;6.63;;;3.33;;
79143;SDS011;68551;47.484;19.092;2023-03-21T11:47:45;5.57;;;3.35;;
79143;SDS011;68551;47.484;19.092;2023-03-21T12:00:51;5.88;;;3.08;;
79143;SDS011;68551;47.484;19.092;2023-03-21T12:04:03;3.90;;;2.92;;
79143;SDS011;68551;47.484;19.092;2023-03-21T12:13:34;4.18;;;3.45;;
79143;SDS011;68551;47.484;19.092;2023-03-21T12:34:11;4.45;;;3.30;;
79143;SDS011;68551;47.484;19.092;2023-03-21T12:43:53;5.78;;;3.20;;
79143;SDS011;68551;47.484;19.092;2023-03-21T12:47:05;4.65;;;2.65;;
79143;SDS011;68551;47.484;19.092;2023-03-21T12:50:22;4.38;;;3.03;;
79143;SDS011;68551;47.484;19.092;2023-03-21T12:53:35;7.10;;;3.40;;
79143;SDS011;68551;47.484;19.092;2023-03-21T13:00:29;5.00;;;3.55;;
79143;SDS011;68551;47.484;19.092;2023-03-21T13:03:37;3.97;;;2.88;;
79143;SDS011;68551;47.484;19.092;2023-03-21T13:06:46;6.75;;;2.85;;
79143;SDS011;68551;47.484;19.092;2023-03-21T13:09:53;8.35;;;2.80;;
79143;SDS011;68551;47.484;19.092;2023-03-21T13:16:22;9.80;;;3.08;;
79143;SDS011;68551;47.484;19.092;2023-03-21T13:19:42;3.83;;;2.80;;
79143;SDS011;68551;47.484;19.092;2023-03-21T13:22:55;3.97;;;2.53;;
79143;SDS011;68551;47.484;19.092;2023-03-21T13:25:57;4.25;;;2.65;;
79143;SDS011;68551;47.484;19.092;2023-03-21T13:29:11;2.90;;;2.30;;
79143;SDS011;68551;47.484;19.092;2023-03-21T13:32:27;3.75;;;2.50;;
79143;SDS011;68551;47.484;19.092;2023-03-21T13:35:41;3.55;;;2.30;;
79143;SDS011;68551;47.484;19.092;2023-03-21T13:38:49;2.30;;;1.92;;
79143;SDS011;68551;47.484;19.092;2023-03-21T13:41:53;2.50;;;2.05;;
79143;SDS011;68551;47.484;19.092;2023-03-21T13:45:08;3.97;;;2.30;;
79143;SDS011;68551;47.484;19.092;2023-03-21T13:51:57;3.05;;;2.42;;
79143;SDS011;68551;47.484;19.092;2023-03-21T13:55:02;3.75;;;3.00;;
79143;SDS011;68551;47.484;19.092;2023-03-21T14:01:44;3.38;;;2.08;;
79143;SDS011;68551;47.484;19.092;2023-03-21T14:05:03;2.90;;;2.00;;
79143;SDS011;68551;47.484;19.092;2023-03-21T14:08:14;2.85;;;2.30;;
79143;SDS011;68551;47.484;19.092;2023-03-21T14:11:28;3.97;;;2.17;;
79143;SDS011;68551;47.484;19.092;2023-03-21T14:14:37;3.53;;;2.72;;
79143;SDS011;68551;47.484;19.092;2023-03-21T14:17:59;3.47;;;2.58;;
79143;SDS011;68551;47.484;19.092;2023-03-21T14:21:23;3.22;;;2.20;;
79143;SDS011;68551;47.484;19.092;2023-03-21T14:24:33;5.53;;;2.45;;
79143;SDS011;68551;47.484;19.092;2023-03-21T14:27:38;4.82;;;2.42;;
79143;SDS011;68551;47.484;19.092;2023-03-21T14:30:55;3.00;;;2.15;;
79143;SDS011;68551;47.484;19.092;2023-03-21T14:34:01;2.72;;;1.80;;
79143;SDS011;68551;47.484;19.092;2023-03-21T14:37:09;3.78;;;1.88;;
79143;SDS011;68551;47.484;19.092;2023-03-21T14:40:23;4.50;;;1.90;;
79143;SDS011;68551;47.484;19.092;2023-03-21T14:43:31;4.38;;;2.50;;
79143;SDS011;68551;47.484;19.092;2023-03-21T14:46:37;4.18;;;2.22;;
79143;SDS011;68551;47.484;19.092;2023-03-21T14:49:40;3.35;;;2.55;;
79143;SDS011;68551;47.484;19.092;2023-03-21T14:52:42;6.90;;;2.60;;
79143;SDS011;68551;47.484;19.092;2023-03-21T14:55:58;3.63;;;2.30;;
79143;SDS011;68551;47.484;19.092;2023-03-21T14:59:03;4.18;;;2.70;;
79143;SDS011;68551;47.484;19.092;2023-03-21T15:02:24;3.38;;;2.70;;
79143;SDS011;68551;47.484;19.092;2023-03-21T15:08:39;5.00;;;2.55;;
79143;SDS011;68551;47.484;19.092;2023-03-21T15:11:54;3.88;;;2.75;;
79143;SDS011;68551;47.484;19.092;2023-03-21T15:15:00;4.07;;;2.13;;
79143;SDS011;68551;47.484;19.092;2023-03-21T15:18:05;3.17;;;2.13;;
79143;SDS011;68551;47.484;19.092;2023-03-21T15:21:20;3.22;;;2.55;;
79143;SDS011;68551;47.484;19.092;2023-03-21T15:24:31;2.85;;;2.08;;
79143;SDS011;68551;47.484;19.092;2023-03-21T15:27:37;3.13;;;2.30;;
79143;SDS011;68551;47.484;19.092;2023-03-21T15:30:51;4.60;;;2.78;;
79143;SDS011;68551;47.484;19.092;2023-03-21T15:33:57;3.53;;;3.03;;
79143;SDS011;68551;47.484;19.092;2023-03-21T15:37:06;3.78;;;3.10;;
79143;SDS011;68551;47.484;19.092;2023-03-21T15:40:20;5.80;;;3.20;;
79143;SDS011;68551;47.484;19.092;2023-03-21T15:43:36;5.03;;;3.30;;
79143;SDS011;68551;47.484;19.092;2023-03-21T15:46:48;4.05;;;3.40;;
79143;SDS011;68551;47.484;19.092;2023-03-21T15:49:56;4.63;;;2.88;;
79143;SDS011;68551;47.484;19.092;2023-03-21T15:53:15;5.68;;;3.70;;
79143;SDS011;68551;47.484;19.092;2023-03-21T15:56:20;4.45;;;3.60;;
79143;SDS011;68551;47.484;19.092;2023-03-21T15:59:24;4.50;;;3.25;;
79143;SDS011;68551;47.484;19.092;2023-03-21T16:02:31;5.05;;;3.60;;
79143;SDS011;68551;47.484;19.092;2023-03-21T16:05:35;4.55;;;3.17;;
79143;SDS011;68551;47.484;19.092;2023-03-21T16:08:50;4.03;;;3.35;;
79143;SDS011;68551;47.484;19.092;2023-03-21T16:11:55;5.35;;;3.72;;
79143;SDS011;68551;47.484;19.092;2023-03-21T16:18:02;4.95;;;3.22;;
79143;SDS011;68551;47.484;19.092;2023-03-21T16:21:11;4.65;;;3.20;;
79143;SDS011;68551;47.484;19.092;2023-03-21T16:24:17;5.22;;;3.40;;
79143;SDS011;68551;47.484;19.092;2023-03-21T16:27:21;4.45;;;3.22;;
79143;SDS011;68551;47.484;19.092;2023-03-21T16:30:24;5.72;;;3.33;;
79143;SDS011;68551;47.484;19.092;2023-03-21T16:33:27;4.30;;;3.50;;
79143;SDS011;68551;47.484;19.092;2023-03-21T16:36:38;6.07;;;3.90;;
79143;SDS011;68551;47.484;19.092;2023-03-21T16:39:43;5.50;;;3.90;;
79143;SDS011;68551;47.484;19.092;2023-03-21T16:42:46;4.68;;;3.50;;
79143;SDS011;68551;47.484;19.092;2023-03-21T16:45:48;6.53;;;4.00;;
79143;SDS011;68551;47.484;19.092;2023-03-21T16:48:51;6.30;;;4.13;;
79143;SDS011;68551;47.484;19.092;2023-03-21T16:51:56;4.38;;;3.97;;
79143;SDS011;68551;47.484;19.092;2023-03-21T16:54:58;5.18;;;3.72;;
79143;SDS011;68551;47.484;19.092;2023-03-21T16:58:00;6.13;;;4.13;;
79143;SDS011;68551;47.484;19.092;2023-03-21T17:01:05;4.95;;;3.78;;
79143;SDS011;68551;47.484;19.092;2023-03-21T17:04:12;6.35;;;3.90;;
79143;SDS011;68551;47.484;19.092;2023-03-21T17:07:16;6.18;;;4.40;;
79143;SDS011;68551;47.484;19.092;2023-03-21T17:10:21;5.60;;;3.88;;
79143;SDS011;68551;47.484;19.092;2023-03-21T17:13:29;5.72;;;4.38;;
79143;SDS011;68551;47.484;19.092;2023-03-21T17:16:31;7.30;;;4.35;;
79143;SDS011;68551;47.484;19.092;2023-03-21T17:19:34;7.63;;;3.85;;
79143;SDS011;68551;47.484;19.092;2023-03-21T17:22:36;5.50;;;3.70;;
79143;SDS011;68551;47.484;19.092;2023-03-21T17:25:40;6.43;;;4.68;;
79143;SDS011;68551;47.484;19.092;2023-03-21T17:28:48;7.35;;;4.40;;
79143;SDS011;68551;47.484;19.092;2023-03-21T17:31:56;6.20;;;4.43;;
79143;SDS011;68551;47.484;19.092;2023-03-21T17:35:00;5.53;;;4.72;;
79143;SDS011;68551;47.484;19.092;2023-03-21T17:38:05;6.35;;;4.20;;
79143;SDS011;68551;47.484;19.092;2023-03-21T17:41:16;5.32;;;4.07;;
79143;SDS011;68551;47.484;19.092;2023-03-21T17:44:20;7.15;;;4.55;;
79143;SDS011;68551;47.484;19.092;2023-03-21T17:47:22;7.32;;;4.38;;
79143;SDS011;68551;47.484;19.092;2023-03-21T17:50:30;6.65;;;4.35;;
79143;SDS011;68551;47.484;19.092;2023-03-21T17:53:38;6.68;;;4.55;;
79143;SDS011;68551;47.484;19.092;2023-03-21T17:56:42;7.47;;;4.55;;
79143;SDS011;68551;47.484;19.092;2023-03-21T17:59:45;5.03;;;4.10;;
79143;SDS011;68551;47.484;19.092;2023-03-21T18:02:48;10.00;;;4.63;;
79143;SDS011;68551;47.484;19.092;2023-03-21T18:05:54;7.30;;;4.63;;
79143;SDS011;68551;47.484;19.092;2023-03-21T18:08:56;7.25;;;4.85;;
79143;SDS011;68551;47.484;19.092;2023-03-21T18:12:06;6.10;;;4.47;;
79143;SDS011;68551;47.484;19.092;2023-03-21T18:15:08;6.57;;;4.40;;
79143;SDS011;68551;47.484;19.092;2023-03-21T18:18:16;7.07;;;4.90;;
79143;SDS011;68551;47.484;19.092;2023-03-21T18:21:18;7.20;;;4.63;;
79143;SDS011;68551;47.484;19.092;2023-03-21T18:24:23;8.30;;;5.20;;
79143;SDS011;68551;47.484;19.092;2023-03-21T18:27:26;6.38;;;4.45;;
79143;SDS011;68551;47.484;19.092;2023-03-21T18:30:36;6.05;;;4.78;;
79143;SDS011;68551;47.484;19.092;2023-03-21T18:34:02;8.35;;;4.90;;
79143;SDS011;68551;47.484;19.092;2023-03-21T18:37:05;8.18;;;5.05;;
79143;SDS011;68551;47.484;19.092;2023-03-21T18:40:11;8.05;;;5.00;;
79143;SDS011;68551;47.484;19.092;2023-03-21T18:43:16;8.95;;;4.55;;
79143;SDS011;68551;47.484;19.092;2023-03-21T18:46:41;7.65;;;5.05;;
79143;SDS011;68551;47.484;19.092;2023-03-21T18:49:48;10.30;;;5.18;;
79143;SDS011;68551;47.484;19.092;2023-03-21T18:53:13;6.32;;;4.95;;
79143;SDS011;68551;47.484;19.092;2023-03-21T18:56:15;9.07;;;5.13;;
79143;SDS011;68551;47.484;19.092;2023-03-21T18:59:40;8.32;;;4.85;;
79143;SDS011;68551;47.484;19.092;2023-03-21T19:02:46;7.13;;;5.63;;
79143;SDS011;68551;47.484;19.092;2023-03-21T19:05:56;6.75;;;4.88;;
79143;SDS011;68551;47.484;19.092;2023-03-21T19:09:02;7.15;;;5.10;;
79143;SDS011;68551;47.484;19.092;2023-03-21T19:12:04;7.20;;;4.60;;
79143;SDS011;68551;47.484;19.092;2023-03-21T19:15:09;9.10;;;4.93;;
79143;SDS011;68551;47.484;19.092;2023-03-21T19:18:20;6.90;;;4.78;;
79143;SDS011;68551;47.484;19.092;2023-03-21T19:21:42;7.60;;;4.90;;
79143;SDS011;68551;47.484;19.092;2023-03-21T19:24:48;7.97;;;4.55;;
79143;SDS011;68551;47.484;19.092;2023-03-21T19:27:51;7.45;;;4.53;;
79143;SDS011;68551;47.484;19.092;2023-03-21T19:31:01;7.70;;;4.70;;
79143;SDS011;68551;47.484;19.092;2023-03-21T19:34:05;7.07;;;4.72;;
79143;SDS011;68551;47.484;19.092;2023-03-21T19:37:11;7.88;;;5.75;;
79143;SDS011;68551;47.484;19.092;2023-03-21T19:40:13;6.15;;;4.63;;
79143;SDS011;68551;47.484;19.092;2023-03-21T19:43:15;10.43;;;5.10;;
79143;SDS011;68551;47.484;19.092;2023-03-21T19:46:34;6.18;;;4.68;;
79143;SDS011;68551;47.484;19.092;2023-03-21T19:49:39;7.28;;;4.82;;
79143;SDS011;68551;47.484;19.092;2023-03-21T19:53:06;9.35;;;4.88;;
79143;SDS011;68551;47.484;19.092;2023-03-21T19:56:12;9.95;;;4.60;;
79143;SDS011;68551;47.484;19.092;2023-03-21T19:59:27;10.57;;;5.15;;
79143;SDS011;68551;47.484;19.092;2023-03-21T20:02:30;8.45;;;4.90;;
79143;SDS011;68551;47.484;19.092;2023-03-21T20:05:37;8.50;;;4.68;;
79143;SDS011;68551;47.484;19.092;2023-03-21T20:08:40;8.25;;;4.90;;
79143;SDS011;68551;47.484;19.092;2023-03-21T20:12:02;6.90;;;4.50;;
79143;SDS011;68551;47.484;19.092;2023-03-21T20:15:11;7.53;;;4.47;;
79143;SDS011;68551;47.484;19.092;2023-03-21T20:18:20;7.78;;;4.90;;
79143;SDS011;68551;47.484;19.092;2023-03-21T20:21:27;6.47;;;4.47;;
79143;SDS011;68551;47.484;19.092;2023-03-21T20:24:43;7.28;;;4.72;;
79143;SDS011;68551;47.484;19.092;2023-03-21T20:27:46;6.05;;;4.72;;
79143;SDS011;68551;47.484;19.092;2023-03-21T20:30:50;7.72;;;4.38;;